sensor_id;sensor_type;location;lat;lon;timestamp;P1;durP1;ratioP1;P2;durP2;ratioP2
59504;SDS011;45321;53.200;5.814;2022-08-21T00:01:58;9.02;;;3.78;;
59504;SDS011;45321;53.200;5.814;2022-08-21T00:04:24;10.82;;;4.05;;
59504;SDS011;45321;53.200;5.814;2022-08-21T00:06:50;8.75;;;4.00;;
59504;SDS011;45321;53.200;5.814;2022-08-21T00:09:17;9.73;;;4.05;;
59504;SDS011;45321;53.200;5.814;2022-08-21T00:11:44;10.20;;;4.53;;
59504;SDS011;45321;53.200;5.814;2022-08-21T00:14:11;10.23;;;3.85;;
59504;SDS011;45321;53.200;5.814;2022-08-21T00:16:37;14.52;;;5.38;;
59504;SDS011;45321;53.200;5.814;2022-08-21T00:19:04;7.38;;;3.78;;
59504;SDS011;45321;53.200;5.814;2022-08-21T00:21:31;17.38;;;4.88;;
59504;SDS011;45321;53.200;5.814;2022-08-21T00:23:57;7.50;;;4.20;;
59504;SDS011;45321;53.200;5.814;2022-08-21T00:26:23;11.90;;;4.80;;
59504;SDS011;45321;53.200;5.814;2022-08-21T00:28:49;12.38;;;3.92;;
59504;SDS011;45321;53.200;5.814;2022-08-21T00:31:15;14.93;;;4.55;;
59504;SDS011;45321;53.200;5.814;2022-08-21T00:33:43;11.35;;;4.28;;
59504;SDS011;45321;53.200;5.814;2022-08-21T00:36:10;12.52;;;4.10;;
59504;SDS011;45321;53.200;5.814;2022-08-21T00:38:36;13.75;;;4.82;;
59504;SDS011;45321;53.200;5.814;2022-08-21T00:41:05;13.52;;;4.85;;
59504;SDS011;45321;53.200;5.814;2022-08-21T00:43:34;7.95;;;4.50;;
59504;SDS011;45321;53.200;5.814;2022-08-21T00:46:02;15.73;;;4.97;;
59504;SDS011;45321;53.200;5.814;2022-08-21T00:48:29;12.82;;;4.78;;
59504;SDS011;45321;53.200;5.814;2022-08-21T00:53:40;9.13;;;4.80;;
59504;SDS011;45321;53.200;5.814;2022-08-21T00:56:09;9.48;;;4.90;;
59504;SDS011;45321;53.200;5.814;2022-08-21T00:58:36;11.68;;;5.05;;
59504;SDS011;45321;53.200;5.814;2022-08-21T01:01:05;11.05;;;6.18;;
59504;SDS011;45321;53.200;5.814;2022-08-21T01:03:31;9.95;;;5.65;;
59504;SDS011;45321;53.200;5.814;2022-08-21T01:05:58;11.10;;;6.90;;
59504;SDS011;45321;53.200;5.814;2022-08-21T01:08:24;12.32;;;6.30;;
59504;SDS011;45321;53.200;5.814;2022-08-21T01:10:52;10.68;;;5.72;;
59504;SDS011;45321;53.200;5.814;2022-08-21T01:13:18;10.90;;;5.95;;
59504;SDS011;45321;53.200;5.814;2022-08-21T01:15:48;10.52;;;6.28;;
59504;SDS011;45321;53.200;5.814;2022-08-21T01:18:15;11.88;;;5.93;;
59504;SDS011;45321;53.200;5.814;2022-08-21T01:20:43;10.30;;;6.20;;
59504;SDS011;45321;53.200;5.814;2022-08-21T01:23:10;13.07;;;6.20;;
59504;SDS011;45321;53.200;5.814;2022-08-21T01:25:36;11.68;;;6.90;;
59504;SDS011;45321;53.200;5.814;2022-08-21T01:28:04;10.85;;;5.80;;
59504;SDS011;45321;53.200;5.814;2022-08-21T01:30:36;14.57;;;6.32;;
59504;SDS011;45321;53.200;5.814;2022-08-21T01:33:02;12.57;;;7.40;;
59504;SDS011;45321;53.200;5.814;2022-08-21T01:35:28;13.70;;;6.43;;
59504;SDS011;45321;53.200;5.814;2022-08-21T01:37:54;14.07;;;6.45;;
59504;SDS011;45321;53.200;5.814;2022-08-21T01:40:20;11.57;;;6.47;;
59504;SDS011;45321;53.200;5.814;2022-08-21T01:42:46;10.18;;;6.10;;
59504;SDS011;45321;53.200;5.814;2022-08-21T01:45:13;12.80;;;6.68;;
59504;SDS011;45321;53.200;5.814;2022-08-21T01:47:40;11.98;;;6.70;;
59504;SDS011;45321;53.200;5.814;2022-08-21T01:50:07;14.52;;;7.63;;
59504;SDS011;45321;53.200;5.814;2022-08-21T01:52:35;10.55;;;6.32;;
59504;SDS011;45321;53.200;5.814;2022-08-21T01:55:01;14.70;;;6.72;;
59504;SDS011;45321;53.200;5.814;2022-08-21T01:57:28;10.77;;;6.13;;
59504;SDS011;45321;53.200;5.814;2022-08-21T01:59:53;12.40;;;6.30;;
59504;SDS011;45321;53.200;5.814;2022-08-21T02:02:19;11.13;;;6.38;;
59504;SDS011;45321;53.200;5.814;2022-08-21T02:04:45;8.75;;;5.78;;
59504;SDS011;45321;53.200;5.814;2022-08-21T02:07:10;9.38;;;6.88;;
59504;SDS011;45321;53.200;5.814;2022-08-21T02:09:36;10.80;;;6.75;;
59504;SDS011;45321;53.200;5.814;2022-08-21T02:12:02;7.43;;;6.07;;
59504;SDS011;45321;53.200;5.814;2022-08-21T02:14:28;8.45;;;6.32;;
59504;SDS011;45321;53.200;5.814;2022-08-21T02:16:54;12.50;;;6.15;;
59504;SDS011;45321;53.200;5.814;2022-08-21T02:19:20;12.60;;;6.82;;
59504;SDS011;45321;53.200;5.814;2022-08-21T02:21:45;11.90;;;6.40;;
59504;SDS011;45321;53.200;5.814;2022-08-21T02:24:11;9.40;;;6.35;;
59504;SDS011;45321;53.200;5.814;2022-08-21T02:26:37;9.68;;;6.32;;
59504;SDS011;45321;53.200;5.814;2022-08-21T02:29:03;10.50;;;6.82;;
59504;SDS011;45321;53.200;5.814;2022-08-21T02:31:30;12.93;;;6.30;;
59504;SDS011;45321;53.200;5.814;2022-08-21T02:33:56;10.85;;;7.00;;
59504;SDS011;45321;53.200;5.814;2022-08-21T02:36:22;10.88;;;7.10;;
59504;SDS011;45321;53.200;5.814;2022-08-21T02:38:48;10.60;;;6.35;;
59504;SDS011;45321;53.200;5.814;2022-08-21T02:41:16;11.77;;;6.43;;
59504;SDS011;45321;53.200;5.814;2022-08-21T02:43:44;10.63;;;6.75;;
59504;SDS011;45321;53.200;5.814;2022-08-21T02:46:11;9.20;;;6.05;;
59504;SDS011;45321;53.200;5.814;2022-08-21T02:48:38;11.07;;;6.18;;
59504;SDS011;45321;53.200;5.814;2022-08-21T02:51:15;10.27;;;6.10;;
59504;SDS011;45321;53.200;5.814;2022-08-21T02:53:43;11.45;;;7.47;;
59504;SDS011;45321;53.200;5.814;2022-08-21T02:56:11;14.05;;;6.55;;
59504;SDS011;45321;53.200;5.814;2022-08-21T02:58:39;10.60;;;6.68;;
59504;SDS011;45321;53.200;5.814;2022-08-21T03:01:08;10.13;;;6.13;;
59504;SDS011;45321;53.200;5.814;2022-08-21T03:03:35;11.10;;;6.50;;
59504;SDS011;45321;53.200;5.814;2022-08-21T03:06:06;11.57;;;6.63;;
59504;SDS011;45321;53.200;5.814;2022-08-21T03:08:33;11.32;;;6.53;;
59504;SDS011;45321;53.200;5.814;2022-08-21T03:10:59;10.90;;;6.50;;
59504;SDS011;45321;53.200;5.814;2022-08-21T03:13:26;8.65;;;6.55;;
59504;SDS011;45321;53.200;5.814;2022-08-21T03:15:52;11.73;;;6.43;;
59504;SDS011;45321;53.200;5.814;2022-08-21T03:18:18;12.18;;;6.53;;
59504;SDS011;45321;53.200;5.814;2022-08-21T03:20:45;13.15;;;6.43;;
59504;SDS011;45321;53.200;5.814;2022-08-21T03:23:11;12.95;;;7.20;;
59504;SDS011;45321;53.200;5.814;2022-08-21T03:25:37;11.25;;;6.53;;
59504;SDS011;45321;53.200;5.814;2022-08-21T03:28:04;12.60;;;6.97;;
59504;SDS011;45321;53.200;5.814;2022-08-21T03:30:34;13.05;;;7.18;;
59504;SDS011;45321;53.200;5.814;2022-08-21T03:33:01;10.73;;;6.30;;
59504;SDS011;45321;53.200;5.814;2022-08-21T03:35:28;13.60;;;6.57;;
59504;SDS011;45321;53.200;5.814;2022-08-21T03:37:54;13.60;;;7.30;;
59504;SDS011;45321;53.200;5.814;2022-08-21T03:40:20;11.43;;;6.05;;
59504;SDS011;45321;53.200;5.814;2022-08-21T03:42:47;11.45;;;6.07;;
59504;SDS011;45321;53.200;5.814;2022-08-21T03:45:13;11.88;;;6.30;;
59504;SDS011;45321;53.200;5.814;2022-08-21T03:47:57;9.45;;;6.50;;
59504;SDS011;45321;53.200;5.814;2022-08-21T03:50:26;11.18;;;6.45;;
59504;SDS011;45321;53.200;5.814;2022-08-21T03:52:54;12.73;;;6.22;;
59504;SDS011;45321;53.200;5.814;2022-08-21T03:55:20;13.48;;;7.18;;
59504;SDS011;45321;53.200;5.814;2022-08-21T03:57:46;12.35;;;6.78;;
59504;SDS011;45321;53.200;5.814;2022-08-21T04:00:12;11.90;;;5.95;;
59504;SDS011;45321;53.200;5.814;2022-08-21T04:02:40;12.85;;;6.80;;
59504;SDS011;45321;53.200;5.814;2022-08-21T04:05:06;10.35;;;6.55;;
59504;SDS011;45321;53.200;5.814;2022-08-21T04:07:32;10.93;;;6.75;;
59504;SDS011;45321;53.200;5.814;2022-08-21T04:09:58;13.15;;;5.60;;
59504;SDS011;45321;53.200;5.814;2022-08-21T04:12:24;13.27;;;6.35;;
59504;SDS011;45321;53.200;5.814;2022-08-21T04:14:50;11.02;;;6.72;;
59504;SDS011;45321;53.200;5.814;2022-08-21T04:17:16;16.05;;;6.95;;
59504;SDS011;45321;53.200;5.814;2022-08-21T04:19:43;11.88;;;6.20;;
59504;SDS011;45321;53.200;5.814;2022-08-21T04:22:09;13.20;;;6.25;;
59504;SDS011;45321;53.200;5.814;2022-08-21T04:24:35;13.48;;;6.68;;
59504;SDS011;45321;53.200;5.814;2022-08-21T04:27:01;11.82;;;6.70;;
59504;SDS011;45321;53.200;5.814;2022-08-21T04:29:27;12.68;;;6.32;;
59504;SDS011;45321;53.200;5.814;2022-08-21T04:31:52;15.75;;;7.13;;
59504;SDS011;45321;53.200;5.814;2022-08-21T04:34:18;14.85;;;7.00;;
59504;SDS011;45321;53.200;5.814;2022-08-21T04:36:44;11.65;;;6.63;;
59504;SDS011;45321;53.200;5.814;2022-08-21T04:39:09;12.15;;;7.00;;
59504;SDS011;45321;53.200;5.814;2022-08-21T04:41:35;10.00;;;6.40;;
59504;SDS011;45321;53.200;5.814;2022-08-21T04:44:02;10.45;;;6.82;;
59504;SDS011;45321;53.200;5.814;2022-08-21T04:46:28;11.63;;;6.80;;
59504;SDS011;45321;53.200;5.814;2022-08-21T04:48:54;13.35;;;7.05;;
59504;SDS011;45321;53.200;5.814;2022-08-21T04:51:30;13.85;;;7.47;;
59504;SDS011;45321;53.200;5.814;2022-08-21T04:53:59;9.13;;;6.80;;
59504;SDS011;45321;53.200;5.814;2022-08-21T04:56:33;13.93;;;6.57;;
59504;SDS011;45321;53.200;5.814;2022-08-21T04:59:04;11.40;;;6.30;;
59504;SDS011;45321;53.200;5.814;2022-08-21T05:01:36;14.20;;;6.18;;
59504;SDS011;45321;53.200;5.814;2022-08-21T05:04:04;12.93;;;6.80;;
59504;SDS011;45321;53.200;5.814;2022-08-21T05:06:33;9.52;;;6.57;;
59504;SDS011;45321;53.200;5.814;2022-08-21T05:09:02;11.30;;;7.15;;
59504;SDS011;45321;53.200;5.814;2022-08-21T05:11:29;14.15;;;6.82;;
59504;SDS011;45321;53.200;5.814;2022-08-21T05:13:56;12.98;;;7.32;;
59504;SDS011;45321;53.200;5.814;2022-08-21T05:16:22;12.15;;;6.43;;
59504;SDS011;45321;53.200;5.814;2022-08-21T05:18:47;13.80;;;7.18;;
59504;SDS011;45321;53.200;5.814;2022-08-21T05:21:13;10.15;;;6.57;;
59504;SDS011;45321;53.200;5.814;2022-08-21T05:23:39;9.63;;;6.65;;
59504;SDS011;45321;53.200;5.814;2022-08-21T05:26:04;17.55;;;7.18;;
59504;SDS011;45321;53.200;5.814;2022-08-21T05:28:31;10.48;;;6.32;;
59504;SDS011;45321;53.200;5.814;2022-08-21T05:30:57;13.20;;;6.40;;
59504;SDS011;45321;53.200;5.814;2022-08-21T05:33:23;12.63;;;6.80;;
59504;SDS011;45321;53.200;5.814;2022-08-21T05:35:50;12.45;;;7.18;;
59504;SDS011;45321;53.200;5.814;2022-08-21T05:38:18;11.25;;;6.85;;
59504;SDS011;45321;53.200;5.814;2022-08-21T05:40:44;13.43;;;6.22;;
59504;SDS011;45321;53.200;5.814;2022-08-21T05:43:11;11.82;;;6.55;;
59504;SDS011;45321;53.200;5.814;2022-08-21T05:45:37;12.23;;;7.18;;
59504;SDS011;45321;53.200;5.814;2022-08-21T05:48:06;15.07;;;6.50;;
59504;SDS011;45321;53.200;5.814;2022-08-21T05:50:33;11.75;;;6.45;;
59504;SDS011;45321;53.200;5.814;2022-08-21T05:52:59;15.93;;;6.15;;
59504;SDS011;45321;53.200;5.814;2022-08-21T05:55:25;12.40;;;6.40;;
59504;SDS011;45321;53.200;5.814;2022-08-21T05:57:51;13.40;;;6.57;;
59504;SDS011;45321;53.200;5.814;2022-08-21T06:00:17;12.18;;;6.28;;
59504;SDS011;45321;53.200;5.814;2022-08-21T06:02:43;13.02;;;6.03;;
59504;SDS011;45321;53.200;5.814;2022-08-21T06:05:09;11.50;;;6.00;;
59504;SDS011;45321;53.200;5.814;2022-08-21T06:07:35;13.25;;;5.43;;
59504;SDS011;45321;53.200;5.814;2022-08-21T06:10:01;13.73;;;5.70;;
59504;SDS011;45321;53.200;5.814;2022-08-21T06:12:27;14.20;;;5.95;;
59504;SDS011;45321;53.200;5.814;2022-08-21T06:14:53;14.60;;;5.95;;
59504;SDS011;45321;53.200;5.814;2022-08-21T06:17:19;13.70;;;6.25;;
59504;SDS011;45321;53.200;5.814;2022-08-21T06:19:45;16.00;;;6.20;;
59504;SDS011;45321;53.200;5.814;2022-08-21T06:22:15;14.27;;;6.00;;
59504;SDS011;45321;53.200;5.814;2022-08-21T06:24:40;13.05;;;5.07;;
59504;SDS011;45321;53.200;5.814;2022-08-21T06:27:06;14.07;;;5.80;;
59504;SDS011;45321;53.200;5.814;2022-08-21T06:29:32;13.18;;;5.85;;
59504;SDS011;45321;53.200;5.814;2022-08-21T06:31:59;12.15;;;5.40;;
59504;SDS011;45321;53.200;5.814;2022-08-21T06:34:25;17.65;;;5.40;;
59504;SDS011;45321;53.200;5.814;2022-08-21T06:36:51;14.07;;;5.30;;
59504;SDS011;45321;53.200;5.814;2022-08-21T06:39:17;15.02;;;5.78;;
59504;SDS011;45321;53.200;5.814;2022-08-21T06:41:43;17.08;;;5.80;;
59504;SDS011;45321;53.200;5.814;2022-08-21T06:44:08;15.27;;;4.90;;
59504;SDS011;45321;53.200;5.814;2022-08-21T06:46:34;16.38;;;5.43;;
59504;SDS011;45321;53.200;5.814;2022-08-21T06:49:01;12.50;;;4.85;;
59504;SDS011;45321;53.200;5.814;2022-08-21T06:51:27;16.08;;;5.30;;
59504;SDS011;45321;53.200;5.814;2022-08-21T06:53:53;13.38;;;4.65;;
59504;SDS011;45321;53.200;5.814;2022-08-21T06:56:18;15.63;;;4.97;;
59504;SDS011;45321;53.200;5.814;2022-08-21T06:58:44;15.98;;;4.95;;
59504;SDS011;45321;53.200;5.814;2022-08-21T07:01:10;14.45;;;4.82;;
59504;SDS011;45321;53.200;5.814;2022-08-21T07:03:37;9.05;;;4.10;;
59504;SDS011;45321;53.200;5.814;2022-08-21T07:06:05;8.57;;;3.85;;
59504;SDS011;45321;53.200;5.814;2022-08-21T07:08:32;16.13;;;4.43;;
59504;SDS011;45321;53.200;5.814;2022-08-21T07:10:59;18.05;;;4.97;;
59504;SDS011;45321;53.200;5.814;2022-08-21T07:13:26;10.68;;;4.30;;
59504;SDS011;45321;53.200;5.814;2022-08-21T07:15:52;14.18;;;4.38;;
59504;SDS011;45321;53.200;5.814;2022-08-21T07:18:18;9.70;;;3.53;;
59504;SDS011;45321;53.200;5.814;2022-08-21T07:20:44;14.02;;;3.35;;
59504;SDS011;45321;53.200;5.814;2022-08-21T07:23:28;15.73;;;4.00;;
59504;SDS011;45321;53.200;5.814;2022-08-21T07:25:55;16.48;;;2.90;;
59504;SDS011;45321;53.200;5.814;2022-08-21T07:28:21;17.75;;;2.97;;
59504;SDS011;45321;53.200;5.814;2022-08-21T07:30:51;15.13;;;3.08;;
59504;SDS011;45321;53.200;5.814;2022-08-21T07:33:19;15.15;;;3.17;;
59504;SDS011;45321;53.200;5.814;2022-08-21T07:35:45;13.98;;;2.90;;
59504;SDS011;45321;53.200;5.814;2022-08-21T07:38:11;11.00;;;2.85;;
59504;SDS011;45321;53.200;5.814;2022-08-21T07:40:37;21.92;;;3.65;;
59504;SDS011;45321;53.200;5.814;2022-08-21T07:43:02;10.05;;;2.63;;
59504;SDS011;45321;53.200;5.814;2022-08-21T07:45:28;11.85;;;2.75;;
59504;SDS011;45321;53.200;5.814;2022-08-21T07:47:54;10.70;;;2.88;;
59504;SDS011;45321;53.200;5.814;2022-08-21T07:50:20;17.42;;;3.65;;
59504;SDS011;45321;53.200;5.814;2022-08-21T07:52:46;13.15;;;2.95;;
59504;SDS011;45321;53.200;5.814;2022-08-21T07:55:13;14.82;;;3.63;;
59504;SDS011;45321;53.200;5.814;2022-08-21T07:57:41;18.80;;;3.47;;
59504;SDS011;45321;53.200;5.814;2022-08-21T08:00:08;15.82;;;3.10;;
59504;SDS011;45321;53.200;5.814;2022-08-21T08:02:36;11.65;;;2.60;;
59504;SDS011;45321;53.200;5.814;2022-08-21T08:05:03;14.20;;;3.88;;
59504;SDS011;45321;53.200;5.814;2022-08-21T08:07:30;16.83;;;3.40;;
59504;SDS011;45321;53.200;5.814;2022-08-21T08:09:56;13.38;;;3.35;;
59504;SDS011;45321;53.200;5.814;2022-08-21T08:12:29;10.77;;;3.35;;
59504;SDS011;45321;53.200;5.814;2022-08-21T08:14:58;16.30;;;3.85;;
59504;SDS011;45321;53.200;5.814;2022-08-21T08:17:25;11.68;;;3.20;;
59504;SDS011;45321;53.200;5.814;2022-08-21T08:19:51;12.68;;;3.47;;
59504;SDS011;45321;53.200;5.814;2022-08-21T08:22:18;13.85;;;3.42;;
59504;SDS011;45321;53.200;5.814;2022-08-21T08:24:46;13.73;;;3.22;;
59504;SDS011;45321;53.200;5.814;2022-08-21T08:27:13;15.85;;;3.78;;
59504;SDS011;45321;53.200;5.814;2022-08-21T08:29:41;13.68;;;3.50;;
59504;SDS011;45321;53.200;5.814;2022-08-21T08:32:07;13.30;;;3.15;;
59504;SDS011;45321;53.200;5.814;2022-08-21T08:34:33;11.95;;;3.40;;
59504;SDS011;45321;53.200;5.814;2022-08-21T08:37:00;11.15;;;3.38;;
59504;SDS011;45321;53.200;5.814;2022-08-21T08:39:26;15.52;;;3.33;;
59504;SDS011;45321;53.200;5.814;2022-08-21T08:41:59;11.80;;;2.67;;
59504;SDS011;45321;53.200;5.814;2022-08-21T08:44:32;12.45;;;3.05;;
59504;SDS011;45321;53.200;5.814;2022-08-21T08:46:58;9.77;;;3.08;;
59504;SDS011;45321;53.200;5.814;2022-08-21T08:52:27;11.88;;;2.53;;
59504;SDS011;45321;53.200;5.814;2022-08-21T08:55:05;9.80;;;2.65;;
59504;SDS011;45321;53.200;5.814;2022-08-21T08:57:34;12.23;;;2.80;;
59504;SDS011;45321;53.200;5.814;2022-08-21T09:00:07;11.68;;;2.47;;
59504;SDS011;45321;53.200;5.814;2022-08-21T09:02:39;10.48;;;2.72;;
59504;SDS011;45321;53.200;5.814;2022-08-21T09:05:06;9.80;;;2.33;;
59504;SDS011;45321;53.200;5.814;2022-08-21T09:12:33;14.25;;;2.97;;
59504;SDS011;45321;53.200;5.814;2022-08-21T09:26:20;9.05;;;2.38;;
59504;SDS011;45321;53.200;5.814;2022-08-21T09:28:53;9.80;;;2.65;;
59504;SDS011;45321;53.200;5.814;2022-08-21T09:31:25;9.82;;;2.53;;
59504;SDS011;45321;53.200;5.814;2022-08-21T09:33:57;13.80;;;2.20;;
59504;SDS011;45321;53.200;5.814;2022-08-21T09:39:04;14.95;;;3.55;;
59504;SDS011;45321;53.200;5.814;2022-08-21T09:41:31;8.60;;;2.10;;
59504;SDS011;45321;53.200;5.814;2022-08-21T09:44:00;8.50;;;1.90;;
59504;SDS011;45321;53.200;5.814;2022-08-21T09:46:27;11.00;;;2.60;;
59504;SDS011;45321;53.200;5.814;2022-08-21T09:49:01;11.32;;;2.45;;
59504;SDS011;45321;53.200;5.814;2022-08-21T09:51:32;9.18;;;2.08;;
59504;SDS011;45321;53.200;5.814;2022-08-21T09:56:38;8.05;;;2.42;;
59504;SDS011;45321;53.200;5.814;2022-08-21T09:59:35;6.45;;;1.65;;
59504;SDS011;45321;53.200;5.814;2022-08-21T10:02:07;9.98;;;2.72;;
59504;SDS011;45321;53.200;5.814;2022-08-21T10:04:50;9.82;;;2.75;;
59504;SDS011;45321;53.200;5.814;2022-08-21T10:07:22;8.20;;;1.80;;
59504;SDS011;45321;53.200;5.814;2022-08-21T10:12:40;9.93;;;2.08;;
59504;SDS011;45321;53.200;5.814;2022-08-21T10:15:15;5.57;;;1.67;;
59504;SDS011;45321;53.200;5.814;2022-08-21T10:25:37;7.60;;;1.80;;
59504;SDS011;45321;53.200;5.814;2022-08-21T10:31:13;5.32;;;1.35;;
59504;SDS011;45321;53.200;5.814;2022-08-21T10:36:17;6.32;;;1.27;;
59504;SDS011;45321;53.200;5.814;2022-08-21T10:48:19;6.32;;;1.58;;
59504;SDS011;45321;53.200;5.814;2022-08-21T10:50:49;5.60;;;1.40;;
59504;SDS011;45321;53.200;5.814;2022-08-21T10:53:22;8.90;;;1.50;;
59504;SDS011;45321;53.200;5.814;2022-08-21T10:56:05;10.00;;;1.90;;
59504;SDS011;45321;53.200;5.814;2022-08-21T11:04:16;4.72;;;1.42;;
59504;SDS011;45321;53.200;5.814;2022-08-21T11:09:16;5.32;;;1.27;;
59504;SDS011;45321;53.200;5.814;2022-08-21T11:12:05;4.88;;;1.35;;
59504;SDS011;45321;53.200;5.814;2022-08-21T11:14:54;4.13;;;1.23;;
59504;SDS011;45321;53.200;5.814;2022-08-21T11:17:46;4.68;;;1.27;;
59504;SDS011;45321;53.200;5.814;2022-08-21T11:20:34;6.10;;;1.65;;
59504;SDS011;45321;53.200;5.814;2022-08-21T11:23:23;6.18;;;1.42;;
59504;SDS011;45321;53.200;5.814;2022-08-21T11:25:53;7.63;;;1.58;;
59504;SDS011;45321;53.200;5.814;2022-08-21T11:28:30;5.35;;;1.30;;
59504;SDS011;45321;53.200;5.814;2022-08-21T11:42:24;5.72;;;1.60;;
59504;SDS011;45321;53.200;5.814;2022-08-21T11:45:19;9.43;;;2.00;;
59504;SDS011;45321;53.200;5.814;2022-08-21T11:50:52;5.93;;;1.35;;
59504;SDS011;45321;53.200;5.814;2022-08-21T11:53:21;8.32;;;2.10;;
59504;SDS011;45321;53.200;5.814;2022-08-21T11:56:25;6.25;;;1.55;;
59504;SDS011;45321;53.200;5.814;2022-08-21T11:58:48;6.63;;;1.50;;
59504;SDS011;45321;53.200;5.814;2022-08-21T12:01:22;8.13;;;1.83;;
59504;SDS011;45321;53.200;5.814;2022-08-21T12:08:59;7.82;;;1.73;;
59504;SDS011;45321;53.200;5.814;2022-08-21T12:11:28;6.13;;;1.40;;
59504;SDS011;45321;53.200;5.814;2022-08-21T12:16:32;6.10;;;1.58;;
59504;SDS011;45321;53.200;5.814;2022-08-21T12:21:48;3.40;;;1.27;;
59504;SDS011;45321;53.200;5.814;2022-08-21T12:24:16;4.32;;;1.38;;
59504;SDS011;45321;53.200;5.814;2022-08-21T12:26:59;5.13;;;1.50;;
59504;SDS011;45321;53.200;5.814;2022-08-21T12:29:39;5.22;;;1.40;;
59504;SDS011;45321;53.200;5.814;2022-08-21T12:32:23;6.63;;;1.40;;
59504;SDS011;45321;53.200;5.814;2022-08-21T12:34:50;3.63;;;1.20;;
59504;SDS011;45321;53.200;5.814;2022-08-21T12:37:56;5.10;;;1.60;;
59504;SDS011;45321;53.200;5.814;2022-08-21T12:40:39;5.80;;;1.42;;
59504;SDS011;45321;53.200;5.814;2022-08-21T12:43:11;6.55;;;1.42;;
59504;SDS011;45321;53.200;5.814;2022-08-21T12:45:42;6.15;;;1.50;;
59504;SDS011;45321;53.200;5.814;2022-08-21T12:48:12;8.27;;;1.65;;
59504;SDS011;45321;53.200;5.814;2022-08-21T12:51:10;6.35;;;1.35;;
59504;SDS011;45321;53.200;5.814;2022-08-21T12:53:49;8.18;;;1.60;;
59504;SDS011;45321;53.200;5.814;2022-08-21T12:56:19;4.60;;;1.30;;
59504;SDS011;45321;53.200;5.814;2022-08-21T12:58:53;3.40;;;1.25;;
59504;SDS011;45321;53.200;5.814;2022-08-21T13:01:32;3.08;;;1.00;;
59504;SDS011;45321;53.200;5.814;2022-08-21T13:04:06;5.45;;;1.40;;
59504;SDS011;45321;53.200;5.814;2022-08-21T13:06:39;6.15;;;1.58;;
59504;SDS011;45321;53.200;5.814;2022-08-21T13:09:11;6.32;;;1.40;;
59504;SDS011;45321;53.200;5.814;2022-08-21T13:11:40;7.28;;;1.50;;
59504;SDS011;45321;53.200;5.814;2022-08-21T13:14:15;4.22;;;1.17;;
59504;SDS011;45321;53.200;5.814;2022-08-21T13:16:54;5.38;;;1.70;;
59504;SDS011;45321;53.200;5.814;2022-08-21T13:19:21;7.68;;;1.45;;
59504;SDS011;45321;53.200;5.814;2022-08-21T13:21:48;4.55;;;1.38;;
59504;SDS011;45321;53.200;5.814;2022-08-21T13:24:16;4.35;;;1.27;;
59504;SDS011;45321;53.200;5.814;2022-08-21T13:26:45;6.85;;;1.80;;
59504;SDS011;45321;53.200;5.814;2022-08-21T13:29:13;7.72;;;1.77;;
59504;SDS011;45321;53.200;5.814;2022-08-21T13:31:46;6.40;;;1.38;;
59504;SDS011;45321;53.200;5.814;2022-08-21T13:34:22;5.03;;;1.40;;
59504;SDS011;45321;53.200;5.814;2022-08-21T13:36:54;7.20;;;1.58;;
59504;SDS011;45321;53.200;5.814;2022-08-21T13:39:23;9.00;;;1.80;;
59504;SDS011;45321;53.200;5.814;2022-08-21T13:41:50;4.30;;;1.20;;
59504;SDS011;45321;53.200;5.814;2022-08-21T13:44:21;5.50;;;1.35;;
59504;SDS011;45321;53.200;5.814;2022-08-21T13:46:56;7.78;;;1.73;;
59504;SDS011;45321;53.200;5.814;2022-08-21T13:49:34;7.22;;;1.98;;
59504;SDS011;45321;53.200;5.814;2022-08-21T13:52:03;6.80;;;1.75;;
59504;SDS011;45321;53.200;5.814;2022-08-21T13:54:36;6.68;;;1.50;;
59504;SDS011;45321;53.200;5.814;2022-08-21T13:57:03;6.07;;;1.40;;
59504;SDS011;45321;53.200;5.814;2022-08-21T13:59:30;7.50;;;1.50;;
59504;SDS011;45321;53.200;5.814;2022-08-21T14:04:33;4.60;;;1.33;;
59504;SDS011;45321;53.200;5.814;2022-08-21T14:07:19;7.00;;;1.75;;
59504;SDS011;45321;53.200;5.814;2022-08-21T14:09:49;7.05;;;1.55;;
59504;SDS011;45321;53.200;5.814;2022-08-21T14:12:25;8.48;;;1.55;;
59504;SDS011;45321;53.200;5.814;2022-08-21T14:14:54;8.02;;;1.75;;
59504;SDS011;45321;53.200;5.814;2022-08-21T14:17:26;7.60;;;1.33;;
59504;SDS011;45321;53.200;5.814;2022-08-21T14:19:54;7.50;;;1.67;;
59504;SDS011;45321;53.200;5.814;2022-08-21T14:25:48;9.32;;;1.67;;
59504;SDS011;45321;53.200;5.814;2022-08-21T14:27:54;7.35;;;1.58;;
59504;SDS011;45321;53.200;5.814;2022-08-21T14:30:29;8.05;;;1.55;;
59504;SDS011;45321;53.200;5.814;2022-08-21T14:33:01;7.45;;;1.60;;
59504;SDS011;45321;53.200;5.814;2022-08-21T14:35:28;7.07;;;1.67;;
59504;SDS011;45321;53.200;5.814;2022-08-21T14:37:54;6.22;;;1.90;;
59504;SDS011;45321;53.200;5.814;2022-08-21T14:40:20;8.15;;;1.92;;
59504;SDS011;45321;53.200;5.814;2022-08-21T14:42:48;7.22;;;1.42;;
59504;SDS011;45321;53.200;5.814;2022-08-21T14:47:45;6.07;;;1.70;;
59504;SDS011;45321;53.200;5.814;2022-08-21T14:50:11;7.63;;;2.40;;
59504;SDS011;45321;53.200;5.814;2022-08-21T14:52:38;7.15;;;1.40;;
59504;SDS011;45321;53.200;5.814;2022-08-21T14:55:06;9.90;;;2.10;;
59504;SDS011;45321;53.200;5.814;2022-08-21T14:57:35;7.32;;;1.75;;
59504;SDS011;45321;53.200;5.814;2022-08-21T15:00:03;5.25;;;1.67;;
59504;SDS011;45321;53.200;5.814;2022-08-21T15:02:30;7.82;;;1.80;;
59504;SDS011;45321;53.200;5.814;2022-08-21T15:04:55;5.97;;;1.70;;
59504;SDS011;45321;53.200;5.814;2022-08-21T15:07:21;5.57;;;1.58;;
59504;SDS011;45321;53.200;5.814;2022-08-21T15:09:47;12.00;;;1.75;;
59504;SDS011;45321;53.200;5.814;2022-08-21T15:12:12;8.98;;;2.70;;
59504;SDS011;45321;53.200;5.814;2022-08-21T15:14:40;9.45;;;2.72;;
59504;SDS011;45321;53.200;5.814;2022-08-21T15:17:07;9.18;;;2.90;;
59504;SDS011;45321;53.200;5.814;2022-08-21T15:19:34;9.40;;;1.65;;
59504;SDS011;45321;53.200;5.814;2022-08-21T15:22:00;10.18;;;1.73;;
59504;SDS011;45321;53.200;5.814;2022-08-21T15:24:26;7.60;;;2.10;;
59504;SDS011;45321;53.200;5.814;2022-08-21T15:26:52;7.15;;;1.58;;
59504;SDS011;45321;53.200;5.814;2022-08-21T15:29:19;8.68;;;1.58;;
59504;SDS011;45321;53.200;5.814;2022-08-21T15:31:50;7.95;;;1.85;;
59504;SDS011;45321;53.200;5.814;2022-08-21T15:34:18;9.90;;;1.65;;
59504;SDS011;45321;53.200;5.814;2022-08-21T15:36:45;5.78;;;1.35;;
59504;SDS011;45321;53.200;5.814;2022-08-21T15:39:11;4.85;;;1.25;;
59504;SDS011;45321;53.200;5.814;2022-08-21T15:41:37;5.85;;;1.92;;
59504;SDS011;45321;53.200;5.814;2022-08-21T15:44:02;7.18;;;2.03;;
59504;SDS011;45321;53.200;5.814;2022-08-21T15:46:28;7.03;;;1.83;;
59504;SDS011;45321;53.200;5.814;2022-08-21T15:48:54;8.20;;;1.95;;
59504;SDS011;45321;53.200;5.814;2022-08-21T15:51:20;6.07;;;2.00;;
59504;SDS011;45321;53.200;5.814;2022-08-21T15:53:45;8.82;;;1.75;;
59504;SDS011;45321;53.200;5.814;2022-08-21T15:58:48;7.82;;;1.83;;
59504;SDS011;45321;53.200;5.814;2022-08-21T16:01:15;5.20;;;1.85;;
59504;SDS011;45321;53.200;5.814;2022-08-21T16:03:41;7.03;;;1.70;;
59504;SDS011;45321;53.200;5.814;2022-08-21T16:06:11;5.43;;;1.65;;
59504;SDS011;45321;53.200;5.814;2022-08-21T16:08:37;9.50;;;1.92;;
59504;SDS011;45321;53.200;5.814;2022-08-21T16:11:03;5.65;;;1.88;;
59504;SDS011;45321;53.200;5.814;2022-08-21T16:13:29;11.02;;;2.70;;
59504;SDS011;45321;53.200;5.814;2022-08-21T16:16:03;5.38;;;1.85;;
59504;SDS011;45321;53.200;5.814;2022-08-21T16:18:30;4.55;;;1.63;;
59504;SDS011;45321;53.200;5.814;2022-08-21T16:20:56;5.97;;;1.67;;
59504;SDS011;45321;53.200;5.814;2022-08-21T16:23:21;5.65;;;2.00;;
59504;SDS011;45321;53.200;5.814;2022-08-21T16:25:47;7.50;;;2.35;;
59504;SDS011;45321;53.200;5.814;2022-08-21T16:28:14;8.07;;;2.35;;